createdAt,value
2023-04-02T00:02:27.456Z,5.29
2023-04-02T00:07:33.876Z,5.32
2023-04-02T00:12:35.291Z,5.28
2023-04-02T00:17:36.767Z,5.31
2023-04-02T00:22:44.462Z,5.21
2023-04-02T00:27:46.249Z,5.21
2023-04-02T00:32:47.976Z,5.17
2023-04-02T00:37:50.197Z,5.20
2023-04-02T00:42:54.647Z,5.09
2023-04-02T00:47:58.624Z,5.11
2023-04-02T00:53:09.140Z,5.07
2023-04-02T00:58:32.852Z,5.04
2023-04-02T01:03:36.952Z,5.00
2023-04-02T01:09:01.002Z,4.98
2023-04-02T01:14:19.854Z,4.93
2023-04-02T01:20:00.953Z,4.91
2023-04-02T01:25:06.440Z,4.87
2023-04-02T01:30:11.944Z,4.92
2023-04-02T01:35:14.017Z,4.94
2023-04-02T01:40:37.799Z,4.81
2023-04-02T01:45:39.293Z,4.76
2023-04-02T01:50:42.624Z,4.74
2023-04-02T01:55:46.006Z,4.71
2023-04-02T02:01:00.133Z,4.72
2023-04-02T02:06:03.095Z,4.65
2023-04-02T02:11:05.729Z,4.62
2023-04-02T02:16:15.172Z,4.58
2023-04-02T02:21:28.921Z,4.55
2023-04-02T02:26:35.899Z,4.56
2023-04-02T02:31:41.813Z,4.49
2023-04-02T02:36:50.750Z,4.47
2023-04-02T02:42:02.530Z,4.35
2023-04-02T02:47:11.770Z,4.29
2023-04-02T02:52:24.786Z,4.28
2023-04-02T02:57:31.827Z,4.26
2023-04-02T03:02:38.551Z,4.22
2023-04-02T03:07:40.413Z,4.26
2023-04-02T03:13:12.949Z,4.36
2023-04-02T03:18:19.993Z,4.24
2023-04-02T03:23:32.560Z,4.30
2023-04-02T03:28:39.619Z,4.21
2023-04-02T03:33:50.426Z,4.22
2023-04-02T03:39:14.679Z,4.17
2023-04-02T03:44:23.839Z,4.14
2023-04-02T03:49:36.728Z,4.08
2023-04-02T03:54:39.565Z,4.02
2023-04-02T04:00:05.435Z,4.02
2023-04-02T04:05:26.327Z,3.97
2023-04-02T04:10:29.231Z,3.88
2023-04-02T04:15:41.906Z,3.79
2023-04-02T04:20:57.021Z,3.58
2023-04-02T04:26:19.797Z,3.54
2023-04-02T04:31:34.070Z,3.45
2023-04-02T04:36:53.833Z,3.38
2023-04-02T04:41:58.689Z,3.40
2023-04-02T04:47:07.327Z,3.34
2023-04-02T04:52:22.409Z,3.31
2023-04-02T04:57:39.864Z,3.33
2023-04-02T05:02:48.855Z,3.24
2023-04-02T05:07:59.863Z,3.18
2023-04-02T05:13:01.441Z,3.27
2023-04-02T05:18:44.986Z,3.02
2023-04-02T05:23:52.695Z,2.89
2023-04-02T05:29:09.193Z,2.85
2023-04-02T05:34:12.409Z,2.75
2023-04-02T05:39:22.603Z,2.60
2023-04-02T05:44:30.153Z,2.59
2023-04-02T05:49:48.662Z,2.59
2023-04-02T05:55:13.429Z,2.55
2023-04-02T06:00:25.466Z,2.48
2023-04-02T06:05:34.317Z,2.51
2023-04-02T06:10:47.435Z,2.40
2023-04-02T06:15:49.158Z,2.34
2023-04-02T06:20:51.080Z,2.36
2023-04-02T06:26:00.253Z,2.44
2023-04-02T06:31:09.567Z,2.32
2023-04-02T06:36:12.494Z,2.16
2023-04-02T06:41:23.234Z,2.18
2023-04-02T06:46:49.974Z,2.10
2023-04-02T06:51:54.794Z,2.04
2023-04-02T06:56:56.682Z,2.14
2023-04-02T07:02:03.684Z,2.08
2023-04-02T07:07:05.164Z,2.08
2023-04-02T07:12:23.695Z,1.96
2023-04-02T07:17:25.176Z,2.04
2023-04-02T07:22:26.896Z,2.12
2023-04-02T07:27:28.296Z,2.15
2023-04-02T07:32:29.785Z,2.10
2023-04-02T07:37:31.903Z,2.27
2023-04-02T07:42:33.318Z,2.38
2023-04-02T07:47:34.857Z,2.51
2023-04-02T07:52:42.746Z,2.48
2023-04-02T07:57:55.733Z,2.59
2023-04-02T08:02:57.328Z,2.59
2023-04-02T08:07:58.888Z,2.64
2023-04-02T08:13:00.353Z,2.71
2023-04-02T08:18:01.860Z,2.64
2023-04-02T08:23:03.853Z,2.65
2023-04-02T08:28:05.300Z,2.53
2023-04-02T08:33:07.199Z,2.56
2023-04-02T08:38:14.716Z,2.54
2023-04-02T08:43:48.770Z,2.43
2023-04-02T08:48:55.805Z,2.26
2023-04-02T08:54:03.422Z,2.68
2023-04-02T08:59:34.655Z,2.75
2023-04-02T09:04:36.979Z,2.82
2023-04-02T09:09:38.904Z,2.89
2023-04-02T09:14:50.292Z,2.93
2023-04-02T09:20:13.614Z,2.81
2023-04-02T09:25:21.041Z,2.97
2023-04-02T09:30:31.767Z,3.06
2023-04-02T09:35:55.048Z,2.96
2023-04-02T09:41:05.756Z,3.19
2023-04-02T09:46:13.178Z,3.39
2023-04-02T09:51:23.047Z,3.38
2023-04-02T09:56:26.984Z,3.40
2023-04-02T10:01:33.200Z,3.59
2023-04-02T10:06:35.200Z,3.47
2023-04-02T10:11:45.807Z,3.73
2023-04-02T10:16:58.390Z,3.79
2023-04-02T10:22:04.302Z,4.03
2023-04-02T10:27:37.562Z,4.88
2023-04-02T10:33:20.125Z,5.57
2023-04-02T10:38:32.320Z,6.13
2023-04-02T10:43:45.594Z,6.35
2023-04-02T10:48:54.784Z,6.70
2023-04-02T10:54:21.840Z,6.53
2023-04-02T10:59:32.063Z,7.16
2023-04-02T11:04:44.126Z,7.66
2023-04-02T11:09:50.793Z,7.63
2023-04-02T11:14:54.311Z,7.10
2023-04-02T11:20:34.205Z,7.64
2023-04-02T11:25:36.099Z,8.28
2023-04-02T11:30:37.764Z,8.04
2023-04-02T11:35:40.919Z,8.82
2023-04-02T11:40:45.374Z,8.36
2023-04-02T11:45:54.839Z,8.97
2023-04-02T11:50:57.148Z,8.96
2023-04-02T11:56:21.336Z,8.00
2023-04-02T12:02:14.197Z,7.88
2023-04-02T12:07:35.133Z,8.36
2023-04-02T12:12:38.672Z,8.37
2023-04-02T12:17:40.963Z,8.67
2023-04-02T12:22:52.057Z,8.75
2023-04-02T12:28:14.375Z,8.34
2023-04-02T12:33:17.147Z,8.35
2023-04-02T12:38:21.458Z,8.55
2023-04-02T12:43:27.761Z,8.43
2023-04-02T12:48:31.380Z,8.67
2023-04-02T12:53:36.892Z,8.48
2023-04-02T12:58:41.543Z,8.45
2023-04-02T13:03:43.973Z,8.59
2023-04-02T13:08:45.630Z,8.41
2023-04-02T13:13:51.695Z,8.70
2023-04-02T13:19:17.965Z,8.22
2023-04-02T13:24:22.066Z,8.49
2023-04-02T13:29:42.896Z,8.56
2023-04-02T13:34:44.444Z,8.67
2023-04-02T13:39:46.341Z,8.45
2023-04-02T13:44:47.961Z,8.33
2023-04-02T13:49:51.031Z,8.32
2023-04-02T13:54:56.101Z,8.64
2023-04-02T14:00:02.970Z,8.33
2023-04-02T14:05:23.203Z,8.52
2023-04-02T14:10:47.063Z,8.54
2023-04-02T14:16:17.623Z,8.55
2023-04-02T14:22:02.818Z,8.35
2023-04-02T14:27:24.268Z,8.43
2023-04-02T14:32:36.475Z,8.24
2023-04-02T14:38:15.496Z,8.34
2023-04-02T14:43:27.742Z,8.42
2023-04-02T14:48:41.414Z,8.33
2023-04-02T14:53:52.590Z,8.42
2023-04-02T14:59:32.699Z,8.30
2023-04-02T15:04:40.612Z,8.31
2023-04-02T15:09:56.992Z,8.21
2023-04-02T15:15:04.616Z,8.30
2023-04-02T15:20:15.908Z,8.17
2023-04-02T15:25:37.959Z,8.24
2023-04-02T15:30:44.009Z,8.30
2023-04-02T15:35:57.505Z,8.20
2023-04-02T15:41:04.088Z,8.31
2023-04-02T15:46:18.375Z,8.27
2023-04-02T15:51:44.754Z,8.29
2023-04-02T15:57:10.005Z,8.19
2023-04-02T16:02:20.726Z,8.37
2023-04-02T16:07:32.299Z,8.29
2023-04-02T16:12:37.242Z,8.07
2023-04-02T16:17:45.689Z,8.16
2023-04-02T16:23:00.476Z,8.19
2023-04-02T16:28:23.794Z,8.33
2023-04-02T16:33:32.752Z,8.08
2023-04-02T16:38:56.698Z,8.13
2023-04-02T16:44:06.151Z,8.16
2023-04-02T16:49:13.545Z,7.94
2023-04-02T16:54:52.188Z,7.96
2023-04-02T17:00:03.897Z,7.89
2023-04-02T17:05:12.279Z,7.89
2023-04-02T17:10:40.977Z,7.86
2023-04-02T17:15:46.241Z,7.83
2023-04-02T17:20:48.640Z,7.83
2023-04-02T17:25:57.944Z,7.67
2023-04-02T17:31:01.332Z,7.60
2023-04-02T17:36:09.392Z,7.57
2023-04-02T17:41:46.393Z,7.55
2023-04-02T17:47:07.572Z,7.41
2023-04-02T17:52:18.089Z,7.33
2023-04-02T17:57:43.868Z,7.12
2023-04-02T18:02:51.469Z,7.15
2023-04-02T18:08:13.498Z,7.16
2023-04-02T18:13:41.104Z,7.13
2023-04-02T18:19:05.962Z,6.82
2023-04-02T18:24:19.932Z,6.58
2023-04-02T18:29:35.328Z,6.47
2023-04-02T18:34:58.050Z,6.21
2023-04-02T18:40:37.153Z,5.92
2023-04-02T18:45:44.180Z,5.63
2023-04-02T18:50:48.947Z,5.43
2023-04-02T18:55:56.552Z,5.09
2023-04-02T19:01:04.534Z,4.95
2023-04-02T19:06:12.865Z,4.79
2023-04-02T19:11:21.294Z,4.62
2023-04-02T19:16:55.810Z,4.50
2023-04-02T19:22:42.374Z,4.29
2023-04-02T19:28:08.733Z,4.20
2023-04-02T19:33:42.390Z,3.92
2023-04-02T19:38:50.488Z,3.76
2023-04-02T19:43:53.186Z,3.66
2023-04-02T19:49:26.836Z,3.63
2023-04-02T19:54:28.525Z,3.60
2023-04-02T19:59:30.397Z,3.50
2023-04-02T20:04:31.945Z,3.33
2023-04-02T20:09:33.472Z,3.23
2023-04-02T20:14:35.257Z,3.16
2023-04-02T20:19:36.882Z,3.10
2023-04-02T20:24:38.437Z,2.85
2023-04-02T20:29:42.289Z,2.67
2023-04-02T20:34:44.222Z,2.61
2023-04-02T20:39:48.758Z,2.43
2023-04-02T20:44:50.473Z,2.38
2023-04-02T20:49:53.360Z,2.34
2023-04-02T20:54:54.950Z,2.19
2023-04-02T20:59:56.415Z,2.25
2023-04-02T21:04:58.020Z,2.09
2023-04-02T21:10:02.633Z,2.00
2023-04-02T21:15:04.428Z,1.96
2023-04-02T21:20:06.711Z,1.86
2023-04-02T21:25:11.214Z,1.67
2023-04-02T21:30:15.924Z,1.81
2023-04-02T21:35:17.547Z,1.69
2023-04-02T21:40:25.177Z,1.69
2023-04-02T21:45:28.162Z,1.86
2023-04-02T21:50:34.548Z,1.93
2023-04-02T21:55:36.267Z,1.90
2023-04-02T22:00:38.346Z,1.78
2023-04-02T22:05:41.542Z,1.65
2023-04-02T22:10:45.634Z,1.64
2023-04-02T22:15:48.469Z,1.68
2023-04-02T22:20:54.704Z,1.68
2023-04-02T22:25:59.138Z,1.64
2023-04-02T22:31:21.905Z,1.54
2023-04-02T22:36:25.431Z,1.50
2023-04-02T22:41:32.069Z,1.42
2023-04-02T22:46:34.621Z,1.30
2023-04-02T22:51:36.425Z,1.22
2023-04-02T22:56:39.541Z,1.23
2023-04-02T23:01:41.122Z,1.38
2023-04-02T23:06:42.786Z,1.32
2023-04-02T23:11:44.367Z,1.28
2023-04-02T23:16:45.881Z,1.31
2023-04-02T23:21:48.521Z,1.15
2023-04-02T23:26:49.978Z,1.15
2023-04-02T23:31:51.617Z,1.04
2023-04-02T23:36:53.164Z,0.94
2023-04-02T23:41:54.683Z,0.96
2023-04-02T23:46:56.222Z,0.95
2023-04-02T23:51:58.016Z,0.89
2023-04-02T23:56:59.418Z,0.85
